sensor_id;sensor_type;location;lat;lon;timestamp;P1;durP1;ratioP1;P2;durP2;ratioP2
15102;SDS011;7652;53.584;9.998;2023-07-13T00:02:55;5.00;;;3.17;;
15102;SDS011;7652;53.584;9.998;2023-07-13T00:06:17;3.43;;;2.50;;
15102;SDS011;7652;53.584;9.998;2023-07-13T00:09:39;5.27;;;2.67;;
15102;SDS011;7652;53.584;9.998;2023-07-13T00:13:01;4.53;;;2.60;;
15102;SDS011;7652;53.584;9.998;2023-07-13T00:16:23;4.77;;;2.60;;
15102;SDS011;7652;53.584;9.998;2023-07-13T00:19:46;3.57;;;2.20;;
15102;SDS011;7652;53.584;9.998;2023-07-13T00:23:07;6.50;;;2.57;;
15102;SDS011;7652;53.584;9.998;2023-07-13T00:26:29;3.20;;;2.37;;
15102;SDS011;7652;53.584;9.998;2023-07-13T00:29:52;4.60;;;2.43;;
15102;SDS011;7652;53.584;9.998;2023-07-13T00:33:13;4.40;;;2.03;;
15102;SDS011;7652;53.584;9.998;2023-07-13T00:36:39;3.23;;;2.50;;
15102;SDS011;7652;53.584;9.998;2023-07-13T00:40:00;3.63;;;2.07;;
15102;SDS011;7652;53.584;9.998;2023-07-13T00:43:22;3.90;;;2.40;;
15102;SDS011;7652;53.584;9.998;2023-07-13T00:46:45;2.93;;;2.23;;
15102;SDS011;7652;53.584;9.998;2023-07-13T00:50:08;2.20;;;2.00;;
15102;SDS011;7652;53.584;9.998;2023-07-13T00:53:34;3.63;;;2.10;;
15102;SDS011;7652;53.584;9.998;2023-07-13T00:56:57;3.47;;;2.13;;
15102;SDS011;7652;53.584;9.998;2023-07-13T01:00:22;2.87;;;1.90;;
15102;SDS011;7652;53.584;9.998;2023-07-13T01:03:46;3.20;;;2.23;;
15102;SDS011;7652;53.584;9.998;2023-07-13T01:07:07;3.13;;;2.30;;
15102;SDS011;7652;53.584;9.998;2023-07-13T01:10:30;3.90;;;2.30;;
15102;SDS011;7652;53.584;9.998;2023-07-13T01:13:58;3.70;;;2.10;;
15102;SDS011;7652;53.584;9.998;2023-07-13T01:17:21;2.67;;;2.40;;
15102;SDS011;7652;53.584;9.998;2023-07-13T01:20:47;4.47;;;2.37;;
15102;SDS011;7652;53.584;9.998;2023-07-13T01:24:13;4.23;;;2.20;;
15102;SDS011;7652;53.584;9.998;2023-07-13T01:27:35;2.47;;;2.23;;
15102;SDS011;7652;53.584;9.998;2023-07-13T01:30:57;4.17;;;2.40;;
15102;SDS011;7652;53.584;9.998;2023-07-13T01:34:19;4.03;;;2.37;;
15102;SDS011;7652;53.584;9.998;2023-07-13T01:37:42;4.63;;;2.80;;
15102;SDS011;7652;53.584;9.998;2023-07-13T01:41:05;5.70;;;2.53;;
15102;SDS011;7652;53.584;9.998;2023-07-13T01:44:27;3.10;;;2.60;;
15102;SDS011;7652;53.584;9.998;2023-07-13T01:47:48;3.10;;;2.60;;
15102;SDS011;7652;53.584;9.998;2023-07-13T01:51:10;3.23;;;2.50;;
15102;SDS011;7652;53.584;9.998;2023-07-13T01:54:33;4.13;;;2.50;;
15102;SDS011;7652;53.584;9.998;2023-07-13T01:57:54;2.50;;;2.13;;
15102;SDS011;7652;53.584;9.998;2023-07-13T02:01:16;4.47;;;2.70;;
15102;SDS011;7652;53.584;9.998;2023-07-13T02:04:38;4.50;;;3.10;;
15102;SDS011;7652;53.584;9.998;2023-07-13T02:08:00;2.67;;;2.47;;
15102;SDS011;7652;53.584;9.998;2023-07-13T02:11:23;3.80;;;2.67;;
15102;SDS011;7652;53.584;9.998;2023-07-13T02:14:45;3.83;;;2.67;;
15102;SDS011;7652;53.584;9.998;2023-07-13T02:18:06;4.53;;;2.80;;
15102;SDS011;7652;53.584;9.998;2023-07-13T02:21:28;2.77;;;2.57;;
15102;SDS011;7652;53.584;9.998;2023-07-13T02:24:50;3.13;;;2.80;;
15102;SDS011;7652;53.584;9.998;2023-07-13T02:28:13;2.80;;;2.40;;
15102;SDS011;7652;53.584;9.998;2023-07-13T02:31:35;3.93;;;3.00;;
15102;SDS011;7652;53.584;9.998;2023-07-13T02:34:56;6.30;;;2.67;;
15102;SDS011;7652;53.584;9.998;2023-07-13T02:38:18;2.97;;;2.43;;
15102;SDS011;7652;53.584;9.998;2023-07-13T02:41:40;3.37;;;2.50;;
15102;SDS011;7652;53.584;9.998;2023-07-13T02:45:03;3.43;;;2.53;;
15102;SDS011;7652;53.584;9.998;2023-07-13T02:48:25;4.50;;;2.77;;
15102;SDS011;7652;53.584;9.998;2023-07-13T02:51:46;3.77;;;2.80;;
15102;SDS011;7652;53.584;9.998;2023-07-13T02:55:08;3.10;;;2.80;;
15102;SDS011;7652;53.584;9.998;2023-07-13T02:58:30;2.90;;;2.60;;
15102;SDS011;7652;53.584;9.998;2023-07-13T03:01:53;3.07;;;2.70;;
15102;SDS011;7652;53.584;9.998;2023-07-13T03:05:14;3.73;;;2.80;;
15102;SDS011;7652;53.584;9.998;2023-07-13T03:08:36;3.93;;;2.57;;
15102;SDS011;7652;53.584;9.998;2023-07-13T03:11:57;3.73;;;2.50;;
15102;SDS011;7652;53.584;9.998;2023-07-13T03:15:19;3.37;;;2.73;;
15102;SDS011;7652;53.584;9.998;2023-07-13T03:18:42;4.80;;;2.87;;
15102;SDS011;7652;53.584;9.998;2023-07-13T03:22:04;2.57;;;2.37;;
15102;SDS011;7652;53.584;9.998;2023-07-13T03:25:26;4.20;;;2.77;;
15102;SDS011;7652;53.584;9.998;2023-07-13T03:28:47;2.87;;;2.60;;
15102;SDS011;7652;53.584;9.998;2023-07-13T03:32:09;3.30;;;2.70;;
15102;SDS011;7652;53.584;9.998;2023-07-13T03:35:32;2.60;;;2.40;;
15102;SDS011;7652;53.584;9.998;2023-07-13T03:38:55;3.77;;;2.60;;
15102;SDS011;7652;53.584;9.998;2023-07-13T03:42:18;5.27;;;2.70;;
15102;SDS011;7652;53.584;9.998;2023-07-13T03:45:39;2.63;;;2.20;;
15102;SDS011;7652;53.584;9.998;2023-07-13T03:49:01;4.73;;;2.20;;
15102;SDS011;7652;53.584;9.998;2023-07-13T03:52:26;3.70;;;2.60;;
15102;SDS011;7652;53.584;9.998;2023-07-13T03:55:48;6.50;;;2.50;;
15102;SDS011;7652;53.584;9.998;2023-07-13T03:59:09;6.87;;;2.47;;
15102;SDS011;7652;53.584;9.998;2023-07-13T04:02:31;5.27;;;2.33;;
15102;SDS011;7652;53.584;9.998;2023-07-13T04:05:53;6.23;;;2.27;;
15102;SDS011;7652;53.584;9.998;2023-07-13T04:09:16;3.47;;;2.33;;
15102;SDS011;7652;53.584;9.998;2023-07-13T04:12:38;5.63;;;2.20;;
15102;SDS011;7652;53.584;9.998;2023-07-13T04:16:00;5.50;;;2.20;;
15102;SDS011;7652;53.584;9.998;2023-07-13T04:19:21;2.70;;;1.73;;
15102;SDS011;7652;53.584;9.998;2023-07-13T04:22:42;9.90;;;2.30;;
15102;SDS011;7652;53.584;9.998;2023-07-13T04:26:06;3.47;;;1.87;;
15102;SDS011;7652;53.584;9.998;2023-07-13T04:29:28;4.97;;;2.47;;
15102;SDS011;7652;53.584;9.998;2023-07-13T04:32:50;3.17;;;2.40;;
15102;SDS011;7652;53.584;9.998;2023-07-13T04:36:12;4.63;;;2.20;;
15102;SDS011;7652;53.584;9.998;2023-07-13T04:39:34;6.83;;;2.53;;
15102;SDS011;7652;53.584;9.998;2023-07-13T04:42:57;6.50;;;2.37;;
15102;SDS011;7652;53.584;9.998;2023-07-13T04:46:19;4.83;;;2.50;;
15102;SDS011;7652;53.584;9.998;2023-07-13T04:49:41;4.27;;;2.57;;
15102;SDS011;7652;53.584;9.998;2023-07-13T04:53:02;5.33;;;2.33;;
15102;SDS011;7652;53.584;9.998;2023-07-13T04:56:25;7.50;;;2.30;;
15102;SDS011;7652;53.584;9.998;2023-07-13T04:59:47;7.63;;;2.67;;
15102;SDS011;7652;53.584;9.998;2023-07-13T05:03:09;5.27;;;2.60;;
15102;SDS011;7652;53.584;9.998;2023-07-13T05:06:31;6.43;;;2.70;;
15102;SDS011;7652;53.584;9.998;2023-07-13T05:09:53;4.57;;;2.60;;
15102;SDS011;7652;53.584;9.998;2023-07-13T05:13:15;4.63;;;2.57;;
15102;SDS011;7652;53.584;9.998;2023-07-13T05:16:37;8.47;;;2.97;;
15102;SDS011;7652;53.584;9.998;2023-07-13T05:19:59;7.00;;;3.03;;
15102;SDS011;7652;53.584;9.998;2023-07-13T05:23:20;3.87;;;2.77;;
15102;SDS011;7652;53.584;9.998;2023-07-13T05:26:42;6.00;;;2.73;;
15102;SDS011;7652;53.584;9.998;2023-07-13T05:30:03;6.97;;;2.73;;
15102;SDS011;7652;53.584;9.998;2023-07-13T05:33:27;7.33;;;3.13;;
15102;SDS011;7652;53.584;9.998;2023-07-13T05:36:49;4.17;;;2.50;;
15102;SDS011;7652;53.584;9.998;2023-07-13T05:40:12;6.97;;;2.80;;
15102;SDS011;7652;53.584;9.998;2023-07-13T05:43:33;8.03;;;3.13;;
15102;SDS011;7652;53.584;9.998;2023-07-13T05:46:55;8.50;;;3.10;;
15102;SDS011;7652;53.584;9.998;2023-07-13T05:50:18;6.37;;;2.93;;
15102;SDS011;7652;53.584;9.998;2023-07-13T05:53:39;6.23;;;2.83;;
15102;SDS011;7652;53.584;9.998;2023-07-13T05:57:01;5.63;;;2.83;;
15102;SDS011;7652;53.584;9.998;2023-07-13T06:00:22;6.97;;;2.90;;
15102;SDS011;7652;53.584;9.998;2023-07-13T06:03:43;8.13;;;3.27;;
15102;SDS011;7652;53.584;9.998;2023-07-13T06:07:06;11.80;;;3.70;;
15102;SDS011;7652;53.584;9.998;2023-07-13T06:10:27;7.47;;;3.07;;
15102;SDS011;7652;53.584;9.998;2023-07-13T06:13:50;6.17;;;2.63;;
15102;SDS011;7652;53.584;9.998;2023-07-13T06:17:12;5.97;;;2.90;;
15102;SDS011;7652;53.584;9.998;2023-07-13T06:20:34;7.67;;;3.30;;
15102;SDS011;7652;53.584;9.998;2023-07-13T06:23:57;9.23;;;3.40;;
15102;SDS011;7652;53.584;9.998;2023-07-13T06:27:18;6.87;;;2.90;;
15102;SDS011;7652;53.584;9.998;2023-07-13T06:30:39;7.17;;;3.07;;
15102;SDS011;7652;53.584;9.998;2023-07-13T06:34:02;8.00;;;3.10;;
15102;SDS011;7652;53.584;9.998;2023-07-13T06:37:24;5.83;;;2.73;;
15102;SDS011;7652;53.584;9.998;2023-07-13T06:40:46;6.83;;;3.20;;
15102;SDS011;7652;53.584;9.998;2023-07-13T06:44:08;5.90;;;3.33;;
15102;SDS011;7652;53.584;9.998;2023-07-13T06:47:29;7.00;;;2.90;;
15102;SDS011;7652;53.584;9.998;2023-07-13T06:50:53;8.07;;;3.17;;
15102;SDS011;7652;53.584;9.998;2023-07-13T06:54:14;4.37;;;2.70;;
15102;SDS011;7652;53.584;9.998;2023-07-13T06:57:38;6.53;;;2.60;;
15102;SDS011;7652;53.584;9.998;2023-07-13T07:00:59;10.37;;;3.90;;
15102;SDS011;7652;53.584;9.998;2023-07-13T07:04:21;5.43;;;2.37;;
15102;SDS011;7652;53.584;9.998;2023-07-13T07:07:42;9.30;;;2.57;;
15102;SDS011;7652;53.584;9.998;2023-07-13T07:11:04;13.27;;;2.80;;
15102;SDS011;7652;53.584;9.998;2023-07-13T07:14:26;6.00;;;2.43;;
15102;SDS011;7652;53.584;9.998;2023-07-13T07:17:48;7.27;;;2.20;;
15102;SDS011;7652;53.584;9.998;2023-07-13T07:21:10;8.53;;;2.77;;
15102;SDS011;7652;53.584;9.998;2023-07-13T07:24:32;5.03;;;2.40;;
15102;SDS011;7652;53.584;9.998;2023-07-13T07:27:53;9.00;;;3.07;;
15102;SDS011;7652;53.584;9.998;2023-07-13T07:31:19;6.87;;;2.17;;
15102;SDS011;7652;53.584;9.998;2023-07-13T07:34:44;6.83;;;2.37;;
15102;SDS011;7652;53.584;9.998;2023-07-13T07:38:05;7.83;;;2.50;;
15102;SDS011;7652;53.584;9.998;2023-07-13T07:41:28;6.53;;;2.57;;
15102;SDS011;7652;53.584;9.998;2023-07-13T07:44:53;8.20;;;2.20;;
15102;SDS011;7652;53.584;9.998;2023-07-13T07:48:16;5.40;;;2.33;;
15102;SDS011;7652;53.584;9.998;2023-07-13T07:51:37;9.37;;;2.47;;
15102;SDS011;7652;53.584;9.998;2023-07-13T07:54:59;8.37;;;2.53;;
15102;SDS011;7652;53.584;9.998;2023-07-13T07:58:23;5.70;;;2.33;;
15102;SDS011;7652;53.584;9.998;2023-07-13T08:01:48;7.43;;;2.07;;
15102;SDS011;7652;53.584;9.998;2023-07-13T08:05:14;12.07;;;2.80;;
15102;SDS011;7652;53.584;9.998;2023-07-13T08:08:39;7.70;;;2.30;;
15102;SDS011;7652;53.584;9.998;2023-07-13T08:12:00;4.53;;;1.97;;
15102;SDS011;7652;53.584;9.998;2023-07-13T08:15:25;5.47;;;2.30;;
15102;SDS011;7652;53.584;9.998;2023-07-13T08:18:48;5.37;;;1.93;;
15102;SDS011;7652;53.584;9.998;2023-07-13T08:22:11;4.97;;;2.03;;
15102;SDS011;7652;53.584;9.998;2023-07-13T08:25:32;6.13;;;2.30;;
15102;SDS011;7652;53.584;9.998;2023-07-13T08:28:54;5.00;;;2.00;;
15102;SDS011;7652;53.584;9.998;2023-07-13T08:32:15;8.50;;;2.17;;
15102;SDS011;7652;53.584;9.998;2023-07-13T08:35:38;3.63;;;1.80;;
15102;SDS011;7652;53.584;9.998;2023-07-13T08:39:00;7.50;;;2.00;;
15102;SDS011;7652;53.584;9.998;2023-07-13T08:42:32;5.27;;;1.97;;
15102;SDS011;7652;53.584;9.998;2023-07-13T08:45:59;6.17;;;1.83;;
15102;SDS011;7652;53.584;9.998;2023-07-13T08:49:25;5.87;;;2.43;;
15102;SDS011;7652;53.584;9.998;2023-07-13T08:52:47;6.03;;;2.00;;
15102;SDS011;7652;53.584;9.998;2023-07-13T08:56:11;4.60;;;1.70;;
15102;SDS011;7652;53.584;9.998;2023-07-13T08:59:40;6.07;;;2.17;;
15102;SDS011;7652;53.584;9.998;2023-07-13T09:03:02;6.63;;;1.83;;
15102;SDS011;7652;53.584;9.998;2023-07-13T09:06:27;6.07;;;2.30;;
15102;SDS011;7652;53.584;9.998;2023-07-13T09:09:58;2.30;;;1.83;;
15102;SDS011;7652;53.584;9.998;2023-07-13T09:13:31;5.50;;;1.87;;
15102;SDS011;7652;53.584;9.998;2023-07-13T09:16:59;5.07;;;1.60;;
15102;SDS011;7652;53.584;9.998;2023-07-13T09:20:25;3.30;;;1.63;;
15102;SDS011;7652;53.584;9.998;2023-07-13T09:23:52;3.07;;;1.60;;
15102;SDS011;7652;53.584;9.998;2023-07-13T09:27:17;6.80;;;1.83;;
15102;SDS011;7652;53.584;9.998;2023-07-13T09:30:46;4.93;;;1.63;;
15102;SDS011;7652;53.584;9.998;2023-07-13T09:34:13;5.90;;;2.10;;
15102;SDS011;7652;53.584;9.998;2023-07-13T09:37:35;4.03;;;1.63;;
15102;SDS011;7652;53.584;9.998;2023-07-13T09:40:58;3.73;;;1.20;;
15102;SDS011;7652;53.584;9.998;2023-07-13T09:44:31;6.30;;;2.00;;
15102;SDS011;7652;53.584;9.998;2023-07-13T09:48:03;4.17;;;2.10;;
15102;SDS011;7652;53.584;9.998;2023-07-13T09:51:27;3.97;;;2.03;;
15102;SDS011;7652;53.584;9.998;2023-07-13T09:54:49;4.90;;;2.10;;
15102;SDS011;7652;53.584;9.998;2023-07-13T09:58:15;3.90;;;1.80;;
15102;SDS011;7652;53.584;9.998;2023-07-13T10:01:39;6.53;;;2.10;;
15102;SDS011;7652;53.584;9.998;2023-07-13T10:05:03;5.83;;;2.20;;
15102;SDS011;7652;53.584;9.998;2023-07-13T10:08:28;3.60;;;2.17;;
15102;SDS011;7652;53.584;9.998;2023-07-13T10:11:52;6.63;;;2.00;;
15102;SDS011;7652;53.584;9.998;2023-07-13T10:15:14;5.67;;;1.83;;
15102;SDS011;7652;53.584;9.998;2023-07-13T10:18:45;5.67;;;2.07;;
15102;SDS011;7652;53.584;9.998;2023-07-13T10:22:12;4.73;;;1.80;;
15102;SDS011;7652;53.584;9.998;2023-07-13T10:25:41;3.67;;;1.67;;
15102;SDS011;7652;53.584;9.998;2023-07-13T10:29:07;3.57;;;1.60;;
15102;SDS011;7652;53.584;9.998;2023-07-13T10:32:32;4.27;;;1.67;;
15102;SDS011;7652;53.584;9.998;2023-07-13T10:36:05;3.73;;;1.97;;
15102;SDS011;7652;53.584;9.998;2023-07-13T10:39:38;4.10;;;1.93;;
15102;SDS011;7652;53.584;9.998;2023-07-13T10:43:00;2.47;;;1.50;;
15102;SDS011;7652;53.584;9.998;2023-07-13T10:46:27;5.10;;;1.90;;
15102;SDS011;7652;53.584;9.998;2023-07-13T10:49:50;4.33;;;1.60;;
15102;SDS011;7652;53.584;9.998;2023-07-13T10:53:18;4.00;;;1.70;;
15102;SDS011;7652;53.584;9.998;2023-07-13T10:56:42;2.17;;;1.33;;
15102;SDS011;7652;53.584;9.998;2023-07-13T11:00:13;2.60;;;1.40;;
15102;SDS011;7652;53.584;9.998;2023-07-13T11:03:38;7.33;;;1.87;;
15102;SDS011;7652;53.584;9.998;2023-07-13T11:07:10;2.80;;;1.40;;
15102;SDS011;7652;53.584;9.998;2023-07-13T11:10:49;4.57;;;2.07;;
15102;SDS011;7652;53.584;9.998;2023-07-13T11:14:27;3.03;;;1.60;;
15102;SDS011;7652;53.584;9.998;2023-07-13T11:17:53;4.67;;;1.50;;
15102;SDS011;7652;53.584;9.998;2023-07-13T11:21:21;2.67;;;1.60;;
15102;SDS011;7652;53.584;9.998;2023-07-13T11:24:52;4.73;;;1.33;;
15102;SDS011;7652;53.584;9.998;2023-07-13T11:28:21;2.30;;;1.57;;
15102;SDS011;7652;53.584;9.998;2023-07-13T11:31:51;2.90;;;1.40;;
15102;SDS011;7652;53.584;9.998;2023-07-13T11:35:13;2.43;;;1.40;;
15102;SDS011;7652;53.584;9.998;2023-07-13T11:38:43;3.57;;;1.37;;
15102;SDS011;7652;53.584;9.998;2023-07-13T11:42:08;2.33;;;1.40;;
15102;SDS011;7652;53.584;9.998;2023-07-13T11:45:33;4.13;;;1.70;;
15102;SDS011;7652;53.584;9.998;2023-07-13T11:49:11;5.93;;;1.83;;
15102;SDS011;7652;53.584;9.998;2023-07-13T11:52:36;1.83;;;1.40;;
15102;SDS011;7652;53.584;9.998;2023-07-13T11:55:58;3.73;;;1.53;;
15102;SDS011;7652;53.584;9.998;2023-07-13T11:59:20;2.97;;;1.53;;
15102;SDS011;7652;53.584;9.998;2023-07-13T12:02:42;3.37;;;1.57;;
15102;SDS011;7652;53.584;9.998;2023-07-13T12:06:19;3.70;;;1.47;;
15102;SDS011;7652;53.584;9.998;2023-07-13T12:09:47;3.17;;;1.60;;
15102;SDS011;7652;53.584;9.998;2023-07-13T12:13:11;2.10;;;1.50;;
15102;SDS011;7652;53.584;9.998;2023-07-13T12:16:33;4.43;;;1.40;;
15102;SDS011;7652;53.584;9.998;2023-07-13T12:19:55;5.23;;;2.23;;
15102;SDS011;7652;53.584;9.998;2023-07-13T12:23:20;5.30;;;2.00;;
15102;SDS011;7652;53.584;9.998;2023-07-13T12:26:50;8.83;;;2.27;;
15102;SDS011;7652;53.584;9.998;2023-07-13T12:30:22;7.30;;;2.33;;
15102;SDS011;7652;53.584;9.998;2023-07-13T12:33:48;3.70;;;1.83;;
15102;SDS011;7652;53.584;9.998;2023-07-13T12:37:18;4.50;;;2.03;;
15102;SDS011;7652;53.584;9.998;2023-07-13T12:40:41;4.13;;;2.20;;
15102;SDS011;7652;53.584;9.998;2023-07-13T12:44:03;4.33;;;2.47;;
15102;SDS011;7652;53.584;9.998;2023-07-13T12:47:28;7.27;;;2.70;;
15102;SDS011;7652;53.584;9.998;2023-07-13T12:50:50;3.40;;;2.27;;
15102;SDS011;7652;53.584;9.998;2023-07-13T12:54:15;6.03;;;2.57;;
15102;SDS011;7652;53.584;9.998;2023-07-13T12:57:41;3.17;;;2.50;;
15102;SDS011;7652;53.584;9.998;2023-07-13T13:01:07;4.50;;;2.57;;
15102;SDS011;7652;53.584;9.998;2023-07-13T13:04:32;4.00;;;2.00;;
15102;SDS011;7652;53.584;9.998;2023-07-13T13:07:54;3.33;;;2.00;;
15102;SDS011;7652;53.584;9.998;2023-07-13T13:11:15;3.60;;;1.90;;
15102;SDS011;7652;53.584;9.998;2023-07-13T13:14:38;3.93;;;1.47;;
15102;SDS011;7652;53.584;9.998;2023-07-13T13:17:59;3.90;;;1.67;;
15102;SDS011;7652;53.584;9.998;2023-07-13T13:21:22;5.23;;;2.00;;
15102;SDS011;7652;53.584;9.998;2023-07-13T13:24:45;3.20;;;1.67;;
15102;SDS011;7652;53.584;9.998;2023-07-13T13:28:10;2.47;;;1.30;;
15102;SDS011;7652;53.584;9.998;2023-07-13T13:31:36;2.53;;;1.53;;
15102;SDS011;7652;53.584;9.998;2023-07-13T13:34:57;3.40;;;1.73;;
15102;SDS011;7652;53.584;9.998;2023-07-13T13:38:19;2.60;;;1.47;;
15102;SDS011;7652;53.584;9.998;2023-07-13T13:41:44;2.07;;;1.70;;
15102;SDS011;7652;53.584;9.998;2023-07-13T13:45:07;1.87;;;1.40;;
15102;SDS011;7652;53.584;9.998;2023-07-13T13:48:33;1.87;;;1.50;;
15102;SDS011;7652;53.584;9.998;2023-07-13T13:52:00;2.13;;;1.60;;
15102;SDS011;7652;53.584;9.998;2023-07-13T13:55:21;3.23;;;1.30;;
15102;SDS011;7652;53.584;9.998;2023-07-13T13:58:44;1.57;;;1.40;;
15102;SDS011;7652;53.584;9.998;2023-07-13T14:02:11;2.93;;;1.50;;
15102;SDS011;7652;53.584;9.998;2023-07-13T14:05:45;1.47;;;1.33;;
15102;SDS011;7652;53.584;9.998;2023-07-13T14:09:08;3.23;;;1.50;;
15102;SDS011;7652;53.584;9.998;2023-07-13T14:12:31;2.60;;;1.67;;
15102;SDS011;7652;53.584;9.998;2023-07-13T14:15:52;3.13;;;1.40;;
15102;SDS011;7652;53.584;9.998;2023-07-13T14:19:14;2.00;;;1.70;;
15102;SDS011;7652;53.584;9.998;2023-07-13T14:22:37;4.00;;;1.70;;
15102;SDS011;7652;53.584;9.998;2023-07-13T14:25:59;1.77;;;1.37;;
15102;SDS011;7652;53.584;9.998;2023-07-13T14:29:20;1.53;;;1.43;;
15102;SDS011;7652;53.584;9.998;2023-07-13T14:32:44;3.40;;;1.53;;
15102;SDS011;7652;53.584;9.998;2023-07-13T14:36:09;1.97;;;1.40;;
15102;SDS011;7652;53.584;9.998;2023-07-13T14:39:50;3.93;;;1.60;;
15102;SDS011;7652;53.584;9.998;2023-07-13T14:43:13;1.80;;;1.30;;
15102;SDS011;7652;53.584;9.998;2023-07-13T14:46:35;2.90;;;1.50;;
15102;SDS011;7652;53.584;9.998;2023-07-13T14:50:00;2.07;;;1.43;;
15102;SDS011;7652;53.584;9.998;2023-07-13T14:53:25;2.33;;;1.50;;
15102;SDS011;7652;53.584;9.998;2023-07-13T14:56:49;3.53;;;1.63;;
15102;SDS011;7652;53.584;9.998;2023-07-13T15:00:14;3.13;;;1.70;;
15102;SDS011;7652;53.584;9.998;2023-07-13T15:03:37;3.73;;;1.60;;
15102;SDS011;7652;53.584;9.998;2023-07-13T15:07:04;3.03;;;1.63;;
15102;SDS011;7652;53.584;9.998;2023-07-13T15:10:26;3.43;;;1.83;;
15102;SDS011;7652;53.584;9.998;2023-07-13T15:13:50;3.67;;;1.80;;
15102;SDS011;7652;53.584;9.998;2023-07-13T15:17:17;2.13;;;1.93;;
15102;SDS011;7652;53.584;9.998;2023-07-13T15:20:47;2.43;;;1.70;;
15102;SDS011;7652;53.584;9.998;2023-07-13T15:24:10;2.73;;;1.73;;
15102;SDS011;7652;53.584;9.998;2023-07-13T15:27:32;3.03;;;1.63;;
15102;SDS011;7652;53.584;9.998;2023-07-13T15:30:58;1.97;;;1.83;;
15102;SDS011;7652;53.584;9.998;2023-07-13T15:34:21;2.10;;;1.20;;
15102;SDS011;7652;53.584;9.998;2023-07-13T15:37:47;1.77;;;1.30;;
15102;SDS011;7652;53.584;9.998;2023-07-13T15:41:13;4.47;;;1.67;;
15102;SDS011;7652;53.584;9.998;2023-07-13T15:44:38;3.13;;;1.50;;
15102;SDS011;7652;53.584;9.998;2023-07-13T15:48:01;1.70;;;1.60;;
15102;SDS011;7652;53.584;9.998;2023-07-13T15:51:24;3.13;;;2.80;;
15102;SDS011;7652;53.584;9.998;2023-07-13T15:54:47;4.57;;;2.07;;
15102;SDS011;7652;53.584;9.998;2023-07-13T15:58:09;3.60;;;2.20;;
15102;SDS011;7652;53.584;9.998;2023-07-13T16:01:35;2.10;;;1.40;;
15102;SDS011;7652;53.584;9.998;2023-07-13T16:04:58;3.17;;;1.50;;
15102;SDS011;7652;53.584;9.998;2023-07-13T16:08:20;2.80;;;1.40;;
15102;SDS011;7652;53.584;9.998;2023-07-13T16:11:45;1.73;;;1.37;;
15102;SDS011;7652;53.584;9.998;2023-07-13T16:15:12;1.23;;;1.10;;
15102;SDS011;7652;53.584;9.998;2023-07-13T16:18:35;1.67;;;1.20;;
15102;SDS011;7652;53.584;9.998;2023-07-13T16:21:58;3.33;;;1.60;;
15102;SDS011;7652;53.584;9.998;2023-07-13T16:25:21;3.03;;;1.33;;
15102;SDS011;7652;53.584;9.998;2023-07-13T16:28:44;2.53;;;1.40;;
15102;SDS011;7652;53.584;9.998;2023-07-13T16:32:09;1.60;;;1.10;;
15102;SDS011;7652;53.584;9.998;2023-07-13T16:35:33;1.77;;;1.00;;
15102;SDS011;7652;53.584;9.998;2023-07-13T16:38:57;1.50;;;1.00;;
15102;SDS011;7652;53.584;9.998;2023-07-13T16:42:18;1.80;;;1.70;;
15102;SDS011;7652;53.584;9.998;2023-07-13T16:45:40;2.30;;;1.00;;
15102;SDS011;7652;53.584;9.998;2023-07-13T16:49:04;2.77;;;1.17;;
15102;SDS011;7652;53.584;9.998;2023-07-13T16:52:32;1.40;;;1.30;;
15102;SDS011;7652;53.584;9.998;2023-07-13T16:55:54;2.13;;;1.00;;
15102;SDS011;7652;53.584;9.998;2023-07-13T16:59:20;2.17;;;1.07;;
15102;SDS011;7652;53.584;9.998;2023-07-13T17:02:43;3.57;;;1.40;;
15102;SDS011;7652;53.584;9.998;2023-07-13T17:06:15;2.40;;;1.23;;
15102;SDS011;7652;53.584;9.998;2023-07-13T17:09:43;3.23;;;1.37;;
15102;SDS011;7652;53.584;9.998;2023-07-13T17:13:09;3.13;;;1.00;;
15102;SDS011;7652;53.584;9.998;2023-07-13T17:16:31;2.40;;;1.30;;
15102;SDS011;7652;53.584;9.998;2023-07-13T17:19:55;2.50;;;1.30;;
15102;SDS011;7652;53.584;9.998;2023-07-13T17:23:20;1.63;;;1.17;;
15102;SDS011;7652;53.584;9.998;2023-07-13T17:26:44;2.27;;;1.30;;
15102;SDS011;7652;53.584;9.998;2023-07-13T17:30:13;2.90;;;1.03;;
15102;SDS011;7652;53.584;9.998;2023-07-13T17:33:37;2.37;;;0.93;;
15102;SDS011;7652;53.584;9.998;2023-07-13T17:37:00;2.10;;;1.17;;
15102;SDS011;7652;53.584;9.998;2023-07-13T17:40:22;2.20;;;0.90;;
15102;SDS011;7652;53.584;9.998;2023-07-13T17:43:44;1.40;;;1.00;;
15102;SDS011;7652;53.584;9.998;2023-07-13T17:47:11;1.83;;;0.90;;
15102;SDS011;7652;53.584;9.998;2023-07-13T17:50:43;3.17;;;1.10;;
15102;SDS011;7652;53.584;9.998;2023-07-13T17:54:11;3.00;;;1.03;;
15102;SDS011;7652;53.584;9.998;2023-07-13T17:57:33;1.87;;;1.00;;
15102;SDS011;7652;53.584;9.998;2023-07-13T18:00:55;3.93;;;1.30;;
15102;SDS011;7652;53.584;9.998;2023-07-13T18:04:18;2.37;;;1.27;;
15102;SDS011;7652;53.584;9.998;2023-07-13T18:07:42;2.20;;;1.30;;
15102;SDS011;7652;53.584;9.998;2023-07-13T18:11:03;1.70;;;1.20;;
15102;SDS011;7652;53.584;9.998;2023-07-13T18:14:25;2.07;;;1.10;;
15102;SDS011;7652;53.584;9.998;2023-07-13T18:17:48;3.17;;;1.30;;
15102;SDS011;7652;53.584;9.998;2023-07-13T18:21:12;1.23;;;0.90;;
15102;SDS011;7652;53.584;9.998;2023-07-13T18:24:38;3.60;;;1.03;;
15102;SDS011;7652;53.584;9.998;2023-07-13T18:27:59;2.20;;;1.23;;
15102;SDS011;7652;53.584;9.998;2023-07-13T18:31:21;2.10;;;1.20;;
15102;SDS011;7652;53.584;9.998;2023-07-13T18:34:46;1.80;;;1.10;;
15102;SDS011;7652;53.584;9.998;2023-07-13T18:38:16;2.80;;;1.10;;
15102;SDS011;7652;53.584;9.998;2023-07-13T18:41:39;2.73;;;1.13;;
15102;SDS011;7652;53.584;9.998;2023-07-13T18:45:00;2.43;;;1.37;;
15102;SDS011;7652;53.584;9.998;2023-07-13T18:48:23;4.30;;;1.10;;
15102;SDS011;7652;53.584;9.998;2023-07-13T18:51:46;2.70;;;1.20;;
15102;SDS011;7652;53.584;9.998;2023-07-13T18:55:16;2.83;;;1.40;;
15102;SDS011;7652;53.584;9.998;2023-07-13T18:58:40;1.60;;;1.00;;
15102;SDS011;7652;53.584;9.998;2023-07-13T19:02:02;2.63;;;1.30;;
15102;SDS011;7652;53.584;9.998;2023-07-13T19:05:31;3.27;;;1.33;;
15102;SDS011;7652;53.584;9.998;2023-07-13T19:09:14;3.17;;;1.40;;
15102;SDS011;7652;53.584;9.998;2023-07-13T19:12:37;2.23;;;1.30;;
15102;SDS011;7652;53.584;9.998;2023-07-13T19:15:59;4.03;;;1.80;;
15102;SDS011;7652;53.584;9.998;2023-07-13T19:19:21;2.37;;;1.40;;
15102;SDS011;7652;53.584;9.998;2023-07-13T19:22:42;1.80;;;1.30;;
15102;SDS011;7652;53.584;9.998;2023-07-13T19:26:12;2.63;;;1.30;;
15102;SDS011;7652;53.584;9.998;2023-07-13T19:29:39;1.77;;;1.20;;
15102;SDS011;7652;53.584;9.998;2023-07-13T19:33:01;1.93;;;1.37;;
15102;SDS011;7652;53.584;9.998;2023-07-13T19:36:24;2.80;;;1.33;;
15102;SDS011;7652;53.584;9.998;2023-07-13T19:39:47;5.10;;;1.50;;
15102;SDS011;7652;53.584;9.998;2023-07-13T19:43:11;4.17;;;1.33;;
15102;SDS011;7652;53.584;9.998;2023-07-13T19:46:35;4.03;;;1.93;;
15102;SDS011;7652;53.584;9.998;2023-07-13T19:49:58;3.10;;;1.80;;
15102;SDS011;7652;53.584;9.998;2023-07-13T19:53:20;2.50;;;1.53;;
15102;SDS011;7652;53.584;9.998;2023-07-13T19:56:42;2.80;;;1.70;;
15102;SDS011;7652;53.584;9.998;2023-07-13T20:00:05;3.50;;;1.43;;
15102;SDS011;7652;53.584;9.998;2023-07-13T20:03:36;1.63;;;1.47;;
15102;SDS011;7652;53.584;9.998;2023-07-13T20:06:57;2.07;;;1.60;;
15102;SDS011;7652;53.584;9.998;2023-07-13T20:10:23;1.87;;;1.50;;
15102;SDS011;7652;53.584;9.998;2023-07-13T20:13:46;1.00;;;1.00;;
15102;SDS011;7652;53.584;9.998;2023-07-13T20:17:12;1.40;;;1.00;;
15102;SDS011;7652;53.584;9.998;2023-07-13T20:20:57;1.20;;;1.10;;
15102;SDS011;7652;53.584;9.998;2023-07-13T20:24:18;1.40;;;1.30;;
15102;SDS011;7652;53.584;9.998;2023-07-13T20:27:40;1.83;;;1.30;;
15102;SDS011;7652;53.584;9.998;2023-07-13T20:31:02;2.03;;;1.20;;
15102;SDS011;7652;53.584;9.998;2023-07-13T20:34:24;1.87;;;1.00;;
15102;SDS011;7652;53.584;9.998;2023-07-13T20:37:50;1.43;;;1.13;;
15102;SDS011;7652;53.584;9.998;2023-07-13T20:41:12;1.20;;;1.07;;
15102;SDS011;7652;53.584;9.998;2023-07-13T20:44:34;1.07;;;1.07;;
15102;SDS011;7652;53.584;9.998;2023-07-13T20:47:57;1.93;;;1.20;;